createdAt,value
2022-10-17T00:01:28.277Z,93.23
2022-10-17T00:03:54.714Z,92.84
2022-10-17T00:06:21.198Z,92.96
2022-10-17T00:08:47.626Z,93.40
2022-10-17T00:11:19.840Z,93.17
2022-10-17T00:13:47.915Z,93.28
2022-10-17T00:16:15.454Z,93.91
2022-10-17T00:18:41.969Z,93.93
2022-10-17T00:21:15.578Z,94.18
2022-10-17T00:23:42.017Z,95.70
2022-10-17T00:26:08.507Z,95.39
2022-10-17T00:28:35.252Z,94.12
2022-10-17T00:31:06.625Z,94.72
2022-10-17T00:33:35.189Z,93.51
2022-10-17T00:36:13.428Z,93.75
2022-10-17T00:38:41.348Z,94.29
2022-10-17T00:41:08.886Z,95.50
2022-10-17T00:43:53.617Z,95.37
2022-10-17T00:46:22.057Z,95.25
2022-10-17T00:48:54.470Z,95.46
2022-10-17T00:51:26.851Z,95.42
2022-10-17T00:53:53.503Z,96.12
2022-10-17T00:56:21.286Z,96.00
2022-10-17T00:58:48.506Z,95.35
2022-10-17T01:01:16.004Z,95.49
2022-10-17T01:03:42.928Z,95.75
2022-10-17T01:06:09.487Z,95.65
2022-10-17T01:08:36.361Z,95.76
2022-10-17T01:11:46.975Z,95.60
2022-10-17T01:14:26.018Z,95.51
2022-10-17T01:17:02.930Z,95.33
2022-10-17T01:19:59.313Z,95.77
2022-10-17T01:22:41.857Z,95.48
2022-10-17T01:25:39.935Z,95.49
2022-10-17T01:28:15.526Z,95.53
2022-10-17T01:30:47.739Z,95.68
2022-10-17T01:33:32.660Z,95.25
2022-10-17T01:36:11.395Z,96.32
2022-10-17T01:38:48.992Z,95.46
2022-10-17T01:41:42.196Z,95.66
2022-10-17T01:44:23.229Z,95.35
2022-10-17T01:46:51.067Z,95.28
2022-10-17T01:49:23.740Z,95.13
2022-10-17T01:51:57.637Z,95.20
2022-10-17T01:54:41.457Z,95.59
2022-10-17T01:57:14.069Z,95.83
2022-10-17T01:59:43.750Z,95.94
2022-10-17T02:02:11.900Z,95.64
2022-10-17T02:04:38.553Z,95.94
2022-10-17T02:07:12.456Z,96.48
2022-10-17T02:09:40.016Z,95.93
2022-10-17T02:12:17.641Z,95.62
2022-10-17T02:15:08.893Z,96.00
2022-10-17T02:17:57.265Z,95.93
2022-10-17T02:20:35.513Z,96.06
2022-10-17T02:26:02.933Z,97.47
2022-10-17T02:28:33.187Z,98.21
2022-10-17T02:31:22.645Z,98.57
2022-10-17T02:34:00.574Z,98.61
2022-10-17T02:36:32.432Z,99.29
2022-10-17T02:39:00.907Z,99.01
2022-10-17T02:43:58.810Z,99.61
2022-10-17T02:46:29.254Z,99.30
2022-10-17T02:49:00.921Z,98.91
2022-10-17T02:51:47.870Z,98.46
2022-10-17T02:54:34.411Z,98.99
2022-10-17T02:57:12.651Z,99.40
2022-10-17T02:59:41.835Z,99.66
2022-10-17T03:02:08.273Z,100.00
2022-10-17T03:04:34.892Z,100.00
2022-10-17T03:07:01.331Z,99.44
2022-10-17T03:09:27.973Z,100.00
2022-10-17T03:11:54.517Z,100.00
2022-10-17T03:14:20.968Z,100.00
2022-10-17T03:16:47.383Z,100.00
2022-10-17T03:19:13.840Z,99.52
2022-10-17T03:21:40.315Z,99.42
2022-10-17T03:24:07.138Z,99.91
2022-10-17T03:26:33.646Z,99.88
2022-10-17T03:29:00.115Z,100.00
2022-10-17T03:31:26.561Z,100.00
2022-10-17T03:33:53.087Z,100.00
2022-10-17T03:36:19.639Z,100.00
2022-10-17T03:38:46.421Z,100.00
2022-10-17T03:41:12.965Z,100.00
2022-10-17T03:43:40.071Z,100.00
2022-10-17T03:46:07.403Z,100.00
2022-10-17T03:48:34.210Z,100.00
2022-10-17T03:51:05.988Z,100.00
2022-10-17T03:53:33.179Z,100.00
2022-10-17T03:56:17.657Z,100.00
2022-10-17T03:58:44.544Z,100.00
2022-10-17T04:01:13.245Z,100.00
2022-10-17T04:03:40.959Z,100.00
2022-10-17T04:06:07.519Z,100.00
2022-10-17T04:08:34.742Z,100.00
2022-10-17T04:11:02.887Z,100.00
2022-10-17T04:13:29.680Z,100.00
2022-10-17T04:15:58.322Z,100.00
2022-10-17T04:18:25.598Z,100.00
2022-10-17T04:20:52.309Z,100.00
2022-10-17T04:23:19.165Z,100.00
2022-10-17T04:25:45.937Z,100.00
2022-10-17T04:28:12.399Z,100.00
2022-10-17T04:30:41.184Z,100.00
2022-10-17T04:33:10.074Z,100.00
2022-10-17T04:35:36.573Z,100.00
2022-10-17T04:38:03.011Z,100.00
2022-10-17T04:40:29.546Z,100.00
2022-10-17T04:42:56.017Z,100.00
2022-10-17T04:45:22.462Z,100.00
2022-10-17T04:47:48.915Z,100.00
2022-10-17T04:50:15.494Z,100.00
2022-10-17T04:52:41.947Z,100.00
2022-10-17T04:55:08.632Z,100.00
2022-10-17T04:57:35.789Z,100.00
2022-10-17T05:00:02.447Z,100.00
2022-10-17T05:02:29.221Z,100.00
2022-10-17T05:04:55.831Z,100.00
2022-10-17T05:07:22.256Z,100.00
2022-10-17T05:09:48.706Z,100.00
2022-10-17T05:12:15.111Z,100.00
2022-10-17T05:14:41.535Z,100.00
2022-10-17T05:17:08.638Z,100.00
2022-10-17T05:19:35.086Z,100.00
2022-10-17T05:22:01.521Z,100.00
2022-10-17T05:24:27.920Z,100.00
2022-10-17T05:26:54.320Z,100.00
2022-10-17T05:29:20.814Z,100.00
2022-10-17T05:31:47.255Z,100.00
2022-10-17T05:34:14.057Z,100.00
2022-10-17T05:36:40.805Z,100.00
2022-10-17T05:39:07.250Z,100.00
2022-10-17T05:41:33.705Z,100.00
2022-10-17T05:44:03.140Z,100.00
2022-10-17T05:46:31.938Z,100.00
2022-10-17T05:48:58.353Z,100.00
2022-10-17T05:51:24.833Z,100.00
2022-10-17T05:53:51.290Z,100.00
2022-10-17T05:56:19.123Z,100.00
2022-10-17T05:58:50.189Z,100.00
2022-10-17T06:01:18.164Z,100.00
2022-10-17T06:03:44.630Z,99.96
2022-10-17T06:06:13.017Z,99.79
2022-10-17T06:08:39.473Z,100.00
2022-10-17T06:11:09.241Z,99.82
2022-10-17T06:13:36.992Z,100.00
2022-10-17T06:16:03.480Z,100.00
2022-10-17T06:18:30.033Z,99.93
2022-10-17T06:21:03.333Z,98.95
2022-10-17T06:23:29.665Z,98.93
2022-10-17T06:26:03.322Z,98.44
2022-10-17T06:28:30.322Z,98.22
2022-10-17T06:30:57.018Z,97.61
2022-10-17T06:33:23.582Z,97.22
2022-10-17T06:35:54.700Z,97.04
2022-10-17T06:38:21.609Z,96.46
2022-10-17T06:40:48.184Z,95.64
2022-10-17T06:43:14.699Z,94.83
2022-10-17T06:45:41.968Z,93.19
2022-10-17T06:48:08.853Z,92.99
2022-10-17T06:50:35.559Z,92.39
2022-10-17T06:53:02.086Z,92.55
2022-10-17T06:55:28.609Z,92.95
2022-10-17T06:57:56.370Z,93.33
2022-10-17T07:00:23.558Z,93.32
2022-10-17T07:02:50.276Z,92.57
2022-10-17T07:05:17.345Z,91.30
2022-10-17T07:07:45.527Z,91.33
2022-10-17T07:10:13.847Z,90.06
2022-10-17T07:12:40.337Z,89.45
2022-10-17T07:15:07.178Z,88.39
2022-10-17T07:17:33.605Z,86.66
2022-10-17T07:20:00.113Z,86.14
2022-10-17T07:22:26.577Z,85.38
2022-10-17T07:24:53.020Z,84.07
2022-10-17T07:27:19.475Z,82.84
2022-10-17T07:29:45.923Z,81.13
2022-10-17T07:32:12.413Z,80.07
2022-10-17T07:34:38.848Z,79.14
2022-10-17T07:37:06.997Z,77.84
2022-10-17T07:39:35.601Z,76.02
2022-10-17T07:42:02.091Z,74.85
2022-10-17T07:44:28.518Z,73.56
2022-10-17T07:46:54.977Z,73.98
2022-10-17T07:49:21.385Z,73.23
2022-10-17T07:51:47.982Z,71.70
2022-10-17T07:54:14.672Z,70.03
2022-10-17T07:56:41.225Z,68.48
2022-10-17T07:59:09.395Z,67.66
2022-10-17T08:01:36.940Z,66.33
2022-10-17T08:04:03.468Z,64.81
2022-10-17T08:06:29.913Z,63.99
2022-10-17T08:08:57.865Z,63.18
2022-10-17T08:11:25.344Z,62.99
2022-10-17T08:13:52.003Z,63.03
2022-10-17T08:16:18.524Z,63.00
2022-10-17T08:18:45.088Z,62.61
2022-10-17T08:21:13.324Z,60.64
2022-10-17T08:23:40.181Z,59.00
2022-10-17T08:26:10.453Z,58.84
2022-10-17T08:28:38.796Z,57.91
2022-10-17T08:31:11.103Z,58.70
2022-10-17T08:33:38.032Z,56.92
2022-10-17T08:36:05.729Z,56.53
2022-10-17T08:38:35.546Z,54.85
2022-10-17T08:41:13.152Z,53.55
2022-10-17T08:43:54.577Z,52.50
2022-10-17T08:46:21.354Z,52.51
2022-10-17T08:48:51.320Z,53.45
2022-10-17T08:51:36.194Z,54.12
2022-10-17T08:54:20.510Z,53.14
2022-10-17T08:56:50.347Z,52.77
2022-10-17T08:59:30.861Z,52.33
2022-10-17T09:02:15.315Z,51.32
2022-10-17T09:04:58.982Z,52.18
2022-10-17T09:07:35.639Z,53.23
2022-10-17T09:10:20.671Z,51.80
2022-10-17T09:12:53.110Z,50.78
2022-10-17T09:15:35.034Z,51.13
2022-10-17T09:18:21.091Z,50.54
2022-10-17T09:20:56.168Z,49.17
2022-10-17T09:23:43.082Z,47.96
2022-10-17T09:26:11.339Z,49.60
2022-10-17T09:28:41.643Z,48.72
2022-10-17T09:31:19.343Z,47.28
2022-10-17T09:33:54.253Z,46.83
2022-10-17T09:36:33.549Z,44.34
2022-10-17T09:39:20.071Z,43.73
2022-10-17T09:41:50.578Z,43.61
2022-10-17T09:44:30.052Z,42.46
2022-10-17T09:47:18.014Z,42.77
2022-10-17T09:49:47.157Z,43.00
2022-10-17T09:52:20.449Z,43.12
2022-10-17T09:55:01.667Z,43.06
2022-10-17T09:57:28.086Z,41.84
2022-10-17T10:00:03.621Z,40.79
2022-10-17T10:02:31.662Z,40.05
2022-10-17T10:05:05.047Z,38.90
2022-10-17T10:07:35.863Z,39.79
2022-10-17T10:10:04.422Z,40.21
2022-10-17T10:12:38.983Z,39.05
2022-10-17T10:15:30.643Z,38.08
2022-10-17T10:17:57.123Z,37.06
2022-10-17T10:20:31.928Z,36.18
2022-10-17T10:23:08.174Z,35.94
2022-10-17T10:25:36.083Z,35.86
2022-10-17T10:28:09.966Z,35.46
2022-10-17T10:30:39.812Z,36.92
2022-10-17T10:33:11.290Z,36.32
2022-10-17T10:35:37.970Z,36.68
2022-10-17T10:38:15.799Z,38.19
2022-10-17T10:40:54.743Z,36.49
2022-10-17T10:43:32.033Z,36.62
2022-10-17T10:45:59.475Z,37.25
2022-10-17T10:48:37.092Z,36.10
2022-10-17T10:51:14.313Z,36.14
2022-10-17T10:53:58.361Z,34.89
2022-10-17T10:56:49.793Z,35.51
2022-10-17T10:59:30.730Z,35.69
2022-10-17T11:02:09.423Z,33.97
2022-10-17T11:04:51.239Z,33.08
2022-10-17T11:07:25.801Z,34.41
2022-10-17T11:09:59.977Z,35.04
2022-10-17T11:12:34.639Z,33.43
2022-10-17T11:15:25.298Z,33.74
2022-10-17T11:17:59.195Z,33.77
2022-10-17T11:20:41.757Z,35.24
2022-10-17T11:23:14.017Z,33.72
2022-10-17T11:25:41.230Z,32.21
2022-10-17T11:28:16.961Z,35.54
2022-10-17T11:31:03.313Z,34.42
2022-10-17T11:33:44.214Z,35.24
2022-10-17T11:36:11.214Z,35.06
2022-10-17T11:38:50.898Z,35.21
2022-10-17T11:41:24.272Z,34.94
2022-10-17T11:43:56.976Z,35.53
2022-10-17T11:46:26.819Z,33.94
2022-10-17T11:48:55.978Z,34.25
2022-10-17T11:54:16.597Z,33.24
2022-10-17T11:57:14.974Z,34.49
2022-10-17T11:59:57.110Z,34.48
2022-10-17T12:02:50.961Z,33.78
2022-10-17T12:05:33.267Z,34.18
2022-10-17T12:08:09.625Z,33.20
2022-10-17T12:10:44.913Z,33.05
2022-10-17T12:13:30.263Z,33.25
2022-10-17T12:15:58.077Z,31.78
2022-10-17T12:18:27.292Z,34.08
2022-10-17T12:21:00.993Z,32.35
2022-10-17T12:23:30.078Z,30.92
2022-10-17T12:26:04.829Z,30.79
2022-10-17T12:28:37.664Z,32.51
2022-10-17T12:31:06.285Z,33.97
2022-10-17T12:33:48.251Z,34.08
2022-10-17T12:36:17.738Z,33.37
2022-10-17T12:38:50.448Z,33.24
2022-10-17T12:41:37.178Z,33.90
2022-10-17T12:44:28.219Z,32.67
2022-10-17T12:47:09.410Z,33.16
2022-10-17T12:49:42.337Z,33.28
2022-10-17T12:52:21.646Z,32.12
2022-10-17T12:55:10.934Z,31.60
2022-10-17T12:57:44.448Z,32.55
2022-10-17T13:00:20.676Z,31.95
2022-10-17T13:02:49.010Z,31.40
2022-10-17T13:05:34.082Z,31.90
2022-10-17T13:08:03.601Z,31.78
2022-10-17T13:10:34.656Z,31.76
2022-10-17T13:13:08.971Z,32.20
2022-10-17T13:15:37.097Z,32.48
2022-10-17T13:18:03.999Z,33.83
2022-10-17T13:20:32.095Z,34.07
2022-10-17T13:22:59.576Z,34.19
2022-10-17T13:25:28.345Z,34.20
2022-10-17T13:28:13.723Z,35.21
2022-10-17T13:30:40.243Z,34.31
2022-10-17T13:33:31.015Z,34.04
2022-10-17T13:36:01.335Z,34.64
2022-10-17T13:38:32.475Z,35.37
2022-10-17T13:41:10.817Z,36.88
2022-10-17T13:43:43.862Z,37.46
2022-10-17T13:46:39.447Z,37.40
2022-10-17T13:49:22.178Z,37.86
2022-10-17T13:51:53.901Z,36.61
2022-10-17T13:54:41.550Z,36.92
2022-10-17T13:57:24.606Z,36.74
2022-10-17T13:59:55.040Z,37.60
2022-10-17T14:02:24.761Z,38.06
2022-10-17T14:05:20.738Z,37.97
2022-10-17T14:08:12.453Z,38.99
2022-10-17T14:10:42.288Z,38.59
2022-10-17T14:13:20.946Z,39.03
2022-10-17T14:15:47.593Z,39.76
2022-10-17T14:18:19.611Z,39.92
2022-10-17T14:21:31.724Z,40.58
2022-10-17T14:23:43.138Z,41.37
2022-10-17T14:26:21.208Z,41.01
2022-10-17T14:29:02.480Z,40.92
2022-10-17T14:31:32.066Z,40.51
2022-10-17T14:34:01.069Z,41.85
2022-10-17T14:36:42.704Z,41.59
2022-10-17T14:39:20.243Z,41.75
2022-10-17T14:41:47.939Z,42.54
2022-10-17T14:44:27.630Z,42.44
2022-10-17T14:46:59.273Z,42.71
2022-10-17T14:49:35.187Z,43.82
2022-10-17T14:52:14.917Z,45.90
2022-10-17T14:54:49.811Z,42.93
2022-10-17T14:57:23.581Z,45.63
2022-10-17T14:59:54.626Z,45.15
2022-10-17T15:02:22.890Z,44.76
2022-10-17T15:04:49.354Z,46.01
2022-10-17T15:07:17.271Z,46.14
2022-10-17T15:09:45.019Z,47.06
2022-10-17T15:12:17.278Z,47.79
2022-10-17T15:14:44.626Z,48.21
2022-10-17T15:17:34.720Z,49.40
2022-10-17T15:20:01.285Z,50.05
2022-10-17T15:22:27.989Z,49.42
2022-10-17T15:24:54.759Z,48.98
2022-10-17T15:27:23.525Z,49.01
2022-10-17T15:29:51.494Z,50.34
2022-10-17T15:32:17.946Z,50.97
2022-10-17T15:34:44.847Z,51.96
2022-10-17T15:37:20.820Z,52.92
2022-10-17T15:39:55.215Z,51.89
2022-10-17T15:42:31.139Z,50.56
2022-10-17T15:44:58.500Z,51.45
2022-10-17T15:47:34.034Z,52.03
2022-10-17T15:50:01.613Z,51.63
2022-10-17T15:52:28.520Z,52.85
2022-10-17T15:54:56.496Z,53.47
2022-10-17T15:57:28.126Z,54.03
2022-10-17T15:59:57.302Z,53.95
2022-10-17T16:02:24.134Z,54.53
2022-10-17T16:04:52.026Z,55.25
2022-10-17T16:07:19.706Z,55.12
2022-10-17T16:09:46.334Z,56.41
2022-10-17T16:12:28.939Z,57.20
2022-10-17T16:14:55.541Z,57.47
2022-10-17T16:17:21.976Z,56.43
2022-10-17T16:19:48.415Z,56.01
2022-10-17T16:22:36.740Z,56.18
2022-10-17T16:25:19.309Z,56.14
2022-10-17T16:27:47.273Z,57.13
2022-10-17T16:30:14.083Z,57.48
2022-10-17T16:32:40.573Z,57.34
2022-10-17T16:35:08.058Z,57.23
2022-10-17T16:37:35.796Z,57.17
2022-10-17T16:40:04.391Z,57.56
2022-10-17T16:42:31.139Z,58.41
2022-10-17T16:44:58.036Z,58.16
2022-10-17T16:47:24.500Z,59.93
2022-10-17T16:49:51.059Z,60.74
2022-10-17T16:52:17.569Z,60.63
2022-10-17T16:54:44.086Z,60.70
2022-10-17T16:57:10.576Z,60.31
2022-10-17T16:59:37.022Z,62.66
2022-10-17T17:02:03.537Z,63.74
2022-10-17T17:04:30.240Z,64.65
2022-10-17T17:06:56.686Z,64.94
2022-10-17T17:09:23.204Z,66.03
2022-10-17T17:11:49.715Z,66.51
2022-10-17T17:14:16.154Z,66.69
2022-10-17T17:16:43.421Z,67.08
2022-10-17T17:19:15.218Z,68.25
2022-10-17T17:21:47.528Z,68.81
2022-10-17T17:24:14.085Z,69.03
2022-10-17T17:26:41.549Z,67.93
2022-10-17T17:29:08.156Z,69.62
2022-10-17T17:31:35.647Z,70.76
2022-10-17T17:34:02.698Z,71.42
2022-10-17T17:36:31.825Z,71.36
2022-10-17T17:39:00.080Z,71.11
2022-10-17T17:41:27.688Z,69.76
2022-10-17T17:43:54.850Z,69.94
2022-10-17T17:46:22.732Z,70.47
2022-10-17T17:48:50.308Z,68.53
2022-10-17T17:51:20.035Z,69.46
2022-10-17T17:53:47.161Z,68.72
2022-10-17T17:56:28.020Z,68.92
2022-10-17T17:59:00.100Z,69.60
2022-10-17T18:01:28.903Z,70.03
2022-10-17T18:03:56.207Z,69.85
2022-10-17T18:06:23.391Z,69.58
2022-10-17T18:08:52.145Z,69.65
2022-10-17T18:11:21.205Z,69.55
2022-10-17T18:13:53.955Z,70.15
2022-10-17T18:16:20.398Z,70.08
2022-10-17T18:18:46.818Z,70.32
2022-10-17T18:21:14.224Z,71.23
2022-10-17T18:23:43.689Z,71.25
2022-10-17T18:26:10.187Z,71.66
2022-10-17T18:28:38.323Z,71.74
2022-10-17T18:31:11.588Z,72.43
2022-10-17T18:33:38.298Z,72.84
2022-10-17T18:36:07.412Z,72.62
2022-10-17T18:38:34.440Z,72.50
2022-10-17T18:41:05.085Z,72.85
2022-10-17T18:43:33.858Z,73.87
2022-10-17T18:46:13.880Z,74.66
2022-10-17T18:48:44.392Z,74.33
2022-10-17T18:51:12.252Z,73.99
2022-10-17T18:53:43.431Z,74.76
2022-10-17T18:56:10.925Z,74.36
2022-10-17T18:58:38.778Z,74.03
2022-10-17T19:01:17.500Z,75.62
2022-10-17T19:03:46.327Z,77.49
2022-10-17T19:06:14.996Z,78.48
2022-10-17T19:08:42.485Z,76.92
2022-10-17T19:11:31.605Z,77.61
2022-10-17T19:14:01.569Z,77.78
2022-10-17T19:16:31.555Z,77.83
2022-10-17T19:19:11.573Z,77.64
2022-10-17T19:21:38.659Z,77.27
2022-10-17T19:24:07.950Z,78.24
2022-10-17T19:26:36.474Z,78.33
2022-10-17T19:29:04.625Z,78.16
2022-10-17T19:31:32.403Z,78.16
2022-10-17T19:33:59.501Z,78.30
2022-10-17T19:36:32.280Z,78.54
2022-10-17T19:39:02.258Z,78.64
2022-10-17T19:41:28.864Z,78.51
2022-10-17T19:43:55.436Z,78.91
2022-10-17T19:46:24.785Z,79.68
2022-10-17T19:48:51.898Z,79.60
2022-10-17T19:51:20.802Z,78.89
2022-10-17T19:53:47.685Z,78.48
2022-10-17T19:56:18.461Z,79.01
2022-10-17T19:58:46.605Z,79.37
2022-10-17T20:01:22.162Z,79.16
2022-10-17T20:03:49.278Z,79.31
2022-10-17T20:06:17.008Z,79.42
2022-10-17T20:08:44.318Z,80.03
2022-10-17T20:11:14.295Z,80.32
2022-10-17T20:13:41.091Z,79.76
2022-10-17T20:16:11.304Z,80.40
2022-10-17T20:18:38.286Z,80.41
2022-10-17T20:21:10.605Z,80.95
2022-10-17T20:23:38.081Z,80.26
2022-10-17T20:26:25.385Z,80.97
2022-10-17T20:28:53.050Z,80.53
2022-10-17T20:31:20.507Z,80.67
2022-10-17T20:33:46.980Z,81.42
2022-10-17T20:36:16.548Z,81.17
2022-10-17T20:38:43.026Z,81.34
2022-10-17T20:41:10.519Z,81.84
2022-10-17T20:43:38.099Z,82.57
2022-10-17T20:46:22.776Z,81.89
2022-10-17T20:48:54.539Z,81.36
2022-10-17T20:51:21.742Z,81.46
2022-10-17T20:53:48.919Z,82.21
2022-10-17T20:56:34.335Z,82.97
2022-10-17T20:59:03.660Z,83.48
2022-10-17T21:01:31.901Z,83.43
2022-10-17T21:04:06.134Z,83.32
2022-10-17T21:06:42.653Z,83.92
2022-10-17T21:09:09.377Z,84.44
2022-10-17T21:11:35.808Z,85.13
2022-10-17T21:14:04.967Z,85.20
2022-10-17T21:16:32.698Z,85.14
2022-10-17T21:18:59.921Z,85.04
2022-10-17T21:21:33.588Z,84.19
2022-10-17T21:24:06.422Z,84.09
2022-10-17T21:26:34.552Z,84.13
2022-10-17T21:29:05.886Z,83.89
2022-10-17T21:31:37.490Z,84.02
2022-10-17T21:34:12.053Z,83.77
2022-10-17T21:36:38.915Z,84.60
2022-10-17T21:39:05.521Z,85.39
2022-10-17T21:41:32.289Z,85.67
2022-10-17T21:44:04.704Z,86.83
2022-10-17T21:46:31.780Z,87.03
2022-10-17T21:49:00.030Z,87.22
2022-10-17T21:51:27.602Z,87.61
2022-10-17T21:53:56.034Z,89.42
2022-10-17T21:56:30.734Z,89.87
2022-10-17T21:58:58.451Z,90.11
2022-10-17T22:01:28.002Z,91.08
2022-10-17T22:03:56.926Z,90.69
2022-10-17T22:06:39.235Z,91.02
2022-10-17T22:09:09.599Z,91.63
2022-10-17T22:11:36.607Z,92.26
2022-10-17T22:14:11.026Z,92.04
2022-10-17T22:16:38.445Z,92.04
2022-10-17T22:19:06.649Z,92.00
2022-10-17T22:21:35.451Z,92.01
2022-10-17T22:24:05.370Z,92.06
2022-10-17T22:26:33.463Z,92.38
2022-10-17T22:28:59.915Z,92.58
2022-10-17T22:31:26.629Z,91.56
2022-10-17T22:33:53.129Z,91.86
2022-10-17T22:36:19.595Z,90.92
2022-10-17T22:38:46.178Z,90.69
2022-10-17T22:41:12.609Z,90.40
2022-10-17T22:43:39.063Z,89.47
2022-10-17T22:46:07.223Z,88.73
2022-10-17T22:48:33.983Z,89.08
2022-10-17T22:51:01.219Z,89.81
2022-10-17T22:53:29.409Z,90.08
2022-10-17T22:56:00.335Z,90.03
2022-10-17T22:58:28.480Z,89.39
2022-10-17T23:00:55.810Z,89.34
2022-10-17T23:03:23.731Z,89.85
2022-10-17T23:05:50.540Z,90.59
2022-10-17T23:08:20.394Z,90.86
2022-10-17T23:10:47.844Z,92.10
2022-10-17T23:13:15.105Z,91.44
2022-10-17T23:15:42.455Z,90.71
2022-10-17T23:18:10.016Z,91.53
2022-10-17T23:20:37.651Z,91.03
2022-10-17T23:23:05.049Z,90.72
2022-10-17T23:25:33.921Z,91.06
2022-10-17T23:28:00.431Z,90.89
2022-10-17T23:30:26.902Z,90.41
2022-10-17T23:32:53.567Z,90.32
2022-10-17T23:35:20.015Z,90.89
2022-10-17T23:37:46.428Z,90.67
2022-10-17T23:40:13.161Z,91.10
2022-10-17T23:42:39.594Z,91.85
2022-10-17T23:45:06.759Z,92.00
2022-10-17T23:47:33.533Z,92.49
2022-10-17T23:50:00.313Z,92.27
2022-10-17T23:52:26.729Z,91.64
2022-10-17T23:54:53.154Z,91.84
2022-10-17T23:57:19.581Z,92.48
2022-10-17T23:59:46.013Z,92.29
